Terminal Aerodrome Forecast
Issued by NWS Pittsburgh, PA

Current Version | Previous Version | Graphics & Text | Print | Product List | Glossary On
Versions: 1 2 3 4 5 6 7 8 9 10 11 12 13 14 15 16 17 18 19 20 21 22 23 24 25 26
000
FTUS41 KPBZ 241700
TAFPIT
TAF
KPIT 241734Z 2418/2524 13006KT P6SM SCT035 BKN150 WS015/19035KT
     FM242100 17010KT P6SM BKN035 OVC050 WS015/19040KT
     FM250100 23020G30KT P6SM -SHRA BKN020 OVC030
      TEMPO 2501/2503 20025G40KT 3SM TSRA OVC015CB
     FM250300 25017G29KT P6SM VCSH OVC020
     FM251200 24014G24KT P6SM -SHSN OVC015
     FM251800 27015G28KT P6SM BKN025=

USA.gov is the U.S. government's official web portal to all federal, state and local government web resources and services.